Terminal Aerodrome Forecast
Issued by NWS Shreveport, LA

Home | Current Version | Previous Version | Text Only | Print | Product List | Glossary On
Versions: 1 2 3 4 5 6 7 8 9 10 11 12 13 14 15 16 17 18 19
000
FTUS44 KSHV 031100 RRA
TAFSHV
TAF
KSHV 031142Z 0312/0412 10005KT 1SM BR OVC006
      TEMPO 0312/0313 1/2SM FG OVC002
     FM031500 19006KT P6SM BKN015=

USA.gov is the U.S. government's official web portal to all federal, state and local government web resources and services.